Time;durP1;ratioP1;P1;durP2;ratioP2;P2;SDS_P1;SDS_P2;PMS_P1;PMS_P2;Temp;Humidity;BMP_temperature;BMP_pressure;BME280_temperature;BME280_humidity;BME280_pressure;Samples;Min_cycle;Max_cycle;Signal;HPM_P1;HPM_P2
2021/12/22 00:00:17;;;;;;;69.17;33.53;;;-3.90;99.90;;;;;;5016524;28;20041;-78
2021/12/22 00:02:48;;;;;;;74.27;35.47;;;-4.00;99.90;;;;;;5033261;28;20044;-78
2021/12/22 00:05:21;;;;;;;82.73;35.60;;;-4.00;99.90;;;;;;5033582;28;20050;-78
2021/12/22 00:07:47;;;;;;;72.28;35.47;;;-3.90;99.90;;;;;;5033029;28;20060;-78
2021/12/22 00:10:13;;;;;;;74.10;34.30;;;-3.90;99.90;;;;;;5016959;28;20488;-78
2021/12/22 00:12:39;;;;;;;73.37;35.00;;;-3.90;99.90;;;;;;5032662;28;20065;-78
2021/12/22 00:15:06;;;;;;;73.20;36.13;;;-3.90;99.90;;;;;;5032428;28;20507;-78
2021/12/22 00:17:32;;;;;;;73.73;36.80;;;-4.00;99.90;;;;;;5049291;28;20132;-78
2021/12/22 00:19:58;;;;;;;74.23;35.00;;;-3.90;99.90;;;;;;5050044;28;20465;-78
2021/12/22 00:22:23;;;;;;;80.03;37.73;;;-3.90;99.90;;;;;;5016540;28;20037;-77
2021/12/22 00:24:49;;;;;;;70.80;36.00;;;-4.00;99.90;;;;;;5000236;28;20040;-78
2021/12/22 00:27:15;;;;;;;74.47;35.53;;;-3.90;99.90;;;;;;5033338;28;20033;-77
2021/12/22 00:29:45;;;;;;;72.73;34.60;;;-3.90;99.90;;;;;;5050019;28;20112;-78
2021/12/22 00:32:13;;;;;;;80.80;34.90;;;-3.90;99.90;;;;;;5017906;28;20088;-78
2021/12/22 00:34:50;;;;;;;71.97;36.07;;;-3.90;99.90;;;;;;5049193;28;20050;-77
2021/12/22 00:37:22;;;;;;;71.43;33.90;;;-3.90;99.90;;;;;;5033180;28;20048;-78
2021/12/22 00:39:50;;;;;;;65.55;31.70;;;-4.00;99.90;;;;;;5049229;28;20053;-77
2021/12/22 00:42:16;;;;;;;75.20;34.10;;;-4.00;99.90;;;;;;5049334;28;20081;-77
2021/12/22 00:44:43;;;;;;;69.20;31.90;;;-4.10;99.90;;;;;;5050064;28;20085;-78
2021/12/22 00:47:09;;;;;;;73.20;35.50;;;-4.20;99.90;;;;;;5032439;28;20103;-77
2021/12/22 00:49:36;;;;;;;81.50;34.57;;;-4.20;99.90;;;;;;5031973;28;20065;-77
2021/12/22 00:52:02;;;;;;;84.27;38.03;;;-4.20;99.90;;;;;;5032675;28;20037;-78
2021/12/22 00:54:28;;;;;;;76.70;37.23;;;-4.20;99.90;;;;;;5032574;28;20402;-77
2021/12/22 00:57:00;;;;;;;72.80;35.73;;;-4.20;99.90;;;;;;5048817;28;20045;-78
2021/12/22 00:59:26;;;;;;;75.97;35.55;;;-4.20;99.90;;;;;;5048018;28;20056;-77
2021/12/22 01:01:52;;;;;;;74.93;36.07;;;-4.20;99.90;;;;;;5049232;28;20038;-77
2021/12/22 01:04:18;;;;;;;83.30;38.03;;;-4.20;99.90;;;;;;5048572;28;20095;-77
2021/12/22 01:06:45;;;;;;;80.20;36.93;;;-4.30;99.90;;;;;;5015661;28;20045;-77
2021/12/22 01:09:10;;;;;;;85.40;38.23;;;-4.30;99.90;;;;;;5048682;28;20442;-77
2021/12/22 01:11:36;;;;;;;68.93;35.50;;;-4.30;99.90;;;;;;5048647;28;20124;-77
2021/12/22 01:14:03;;;;;;;80.60;37.27;;;-4.30;99.90;;;;;;5015019;28;20400;-77
2021/12/22 01:16:29;;;;;;;86.17;36.73;;;-4.30;99.90;;;;;;5031510;28;20045;-77
2021/12/22 01:18:58;;;;;;;73.97;37.50;;;-4.40;99.90;;;;;;5032827;28;20048;-77
2021/12/22 01:21:37;;;;;;;83.97;37.03;;;-4.30;99.90;;;;;;5015426;28;20089;-77
2021/12/22 01:27:09;;;;;;;92.30;40.23;;;-4.40;99.90;;;;;;4997701;28;20054;-77
2021/12/22 01:29:39;;;;;;;88.25;40.10;;;-4.30;99.90;;;;;;5032519;28;20052;-77
2021/12/22 01:32:08;;;;;;;90.87;39.93;;;-4.30;99.90;;;;;;5046636;28;20045;-77
2021/12/22 01:34:34;;;;;;;88.33;38.60;;;-4.30;99.90;;;;;;5049374;28;20091;-77
2021/12/22 01:37:00;;;;;;;82.00;39.27;;;-4.30;99.90;;;;;;5015370;28;20033;-77
2021/12/22 01:39:26;;;;;;;94.03;42.10;;;-4.30;99.90;;;;;;5047359;28;20195;-76
2021/12/22 01:41:53;;;;;;;84.97;40.33;;;-4.30;99.90;;;;;;5015159;28;20049;-77
2021/12/22 01:44:31;;;;;;;75.87;36.70;;;-4.20;99.90;;;;;;5048393;28;20049;-77
2021/12/22 01:49:50;;;;;;;76.63;36.33;;;-4.30;99.90;;;;;;5045350;28;20096;-77
2021/12/22 01:52:20;;;;;;;75.70;36.00;;;-4.40;99.90;;;;;;5031242;28;20044;-77
2021/12/22 01:55:03;;;;;;;71.27;35.70;;;-4.40;99.90;;;;;;5030581;28;20442;-77
2021/12/22 01:57:30;;;;;;;76.68;36.50;;;-4.40;99.90;;;;;;5031268;28;20046;-77
2021/12/22 01:59:56;;;;;;;72.90;35.27;;;-4.40;99.90;;;;;;5013475;28;20523;-77
2021/12/22 02:02:22;;;;;;;76.10;35.23;;;-4.50;99.90;;;;;;5013957;28;20179;-77
2021/12/22 02:04:48;;;;;;;85.03;37.23;;;-4.50;99.90;;;;;;5014842;28;20396;-77
2021/12/22 02:07:15;;;;;;;72.00;36.90;;;-4.50;99.90;;;;;;5027245;28;20041;-77
2021/12/22 02:12:13;;;;;;;65.00;32.43;;;-4.60;99.90;;;;;;5028300;28;20060;-77
2021/12/22 02:14:41;;;;;;;78.53;35.43;;;-4.60;99.90;;;;;;5030445;28;20071;-77
2021/12/22 02:17:08;;;;;;;73.77;33.63;;;-4.60;99.90;;;;;;5030397;28;20045;-77
2021/12/22 02:19:38;;;;;;;76.53;35.73;;;-4.60;99.90;;;;;;5030738;28;20046;-76
2021/12/22 02:22:09;;;;;;;66.43;34.20;;;-4.60;99.90;;;;;;5030665;28;20080;-76
2021/12/22 02:24:35;;;;;;;74.23;36.53;;;-4.60;99.90;;;;;;5047405;28;20037;-76
2021/12/22 02:27:06;;;;;;;75.33;36.87;;;-4.50;99.90;;;;;;5046903;28;20049;-77
2021/12/22 02:29:37;;;;;;;73.47;35.97;;;-4.50;99.90;;;;;;5014277;28;20045;-77
2021/12/22 02:32:14;;;;;;;82.33;38.93;;;-4.40;99.90;;;;;;5047473;28;20056;-76
2021/12/22 02:34:43;;;;;;;78.30;36.70;;;-4.30;99.90;;;;;;5032191;28;20049;-76
2021/12/22 02:37:13;;;;;;;84.73;39.00;;;-4.30;99.90;;;;;;5014982;28;20051;-76
2021/12/22 02:40:10;;;;;;;82.20;38.10;;;-4.20;99.90;;;;;;5031287;28;20562;-76
2021/12/22 02:42:37;;;;;;;72.90;35.27;;;-4.20;99.90;;;;;;5031977;28;20060;-76
2021/12/22 02:45:18;;;;;;;85.40;37.30;;;-4.20;99.90;;;;;;5014751;28;20049;-76
2021/12/22 02:47:44;;;;;;;71.33;34.63;;;-4.10;99.90;;;;;;5047846;28;20059;-76
2021/12/22 02:50:12;;;;;;;72.80;34.57;;;-4.10;99.90;;;;;;5031185;28;20042;-76
2021/12/22 02:55:15;;;;;;;77.23;37.33;;;-4.10;99.90;;;;;;5032603;28;20060;-76
2021/12/22 02:57:46;;;;;;;61.27;33.47;;;-4.10;99.90;;;;;;5031497;28;20038;-77
2021/12/22 03:00:45;;;;;;;63.90;32.47;;;-4.10;99.90;;;;;;4983180;28;20037;-76
2021/12/22 03:03:29;;;;;;;66.67;31.70;;;-4.10;99.90;;;;;;5048079;28;20049;-76
2021/12/22 03:05:56;;;;;;;63.07;32.20;;;-4.20;99.90;;;;;;5017067;28;20046;-76
2021/12/22 03:08:22;;;;;;;56.60;29.47;;;-4.20;99.90;;;;;;5031497;28;20052;-76
2021/12/22 03:10:51;;;;;;;59.20;30.47;;;-4.20;99.90;;;;;;5031894;28;20050;-76
2021/12/22 03:13:19;;;;;;;62.83;31.40;;;-4.20;99.90;;;;;;5031324;28;20049;-76
2021/12/22 03:15:45;;;;;;;53.13;29.57;;;-4.30;99.90;;;;;;5031351;28;20056;-77
2021/12/22 03:18:10;;;;;;;62.53;29.83;;;-4.30;99.90;;;;;;5031351;28;20458;-76
2021/12/22 03:20:37;;;;;;;56.30;28.90;;;-4.40;99.90;;;;;;5031441;28;20045;-76
2021/12/22 03:23:04;;;;;;;53.17;27.90;;;-4.40;99.90;;;;;;5014719;28;20042;-76
2021/12/22 03:25:30;;;;;;;59.43;28.37;;;-4.50;99.90;;;;;;5031411;28;20132;-76
2021/12/22 03:28:01;;;;;;;62.13;28.40;;;-4.50;99.90;;;;;;5031329;28;20499;-76
2021/12/22 03:30:27;;;;;;;51.83;28.37;;;-4.60;99.90;;;;;;5031367;28;20056;-76
2021/12/22 03:32:53;;;;;;;57.80;28.13;;;-4.60;99.90;;;;;;5031227;28;20045;-76
2021/12/22 03:35:20;;;;;;;60.33;30.33;;;-4.60;99.90;;;;;;5014844;28;20480;-76
2021/12/22 03:37:55;;;;;;;62.23;31.17;;;-4.60;99.90;;;;;;5031288;28;20092;-76
2021/12/22 03:40:22;;;;;;;54.30;29.37;;;-4.60;99.90;;;;;;5031316;28;20466;-76
2021/12/22 03:42:48;;;;;;;61.90;29.93;;;-4.50;99.90;;;;;;5031708;28;20053;-76
2021/12/22 03:45:15;;;;;;;61.87;31.17;;;-4.50;99.90;;;;;;5031241;28;20037;-76
2021/12/22 03:47:41;;;;;;;64.83;32.00;;;-4.50;99.90;;;;;;5031171;28;20081;-76
2021/12/22 03:50:09;;;;;;;53.50;28.63;;;-4.50;99.90;;;;;;5014724;28;20585;-76
2021/12/22 03:52:36;;;;;;;54.77;28.10;;;-4.50;99.90;;;;;;5031103;28;20050;-76
2021/12/22 03:55:02;;;;;;;47.80;26.97;;;-4.50;99.90;;;;;;5014733;28;20049;-76
2021/12/22 03:57:28;;;;;;;52.77;26.60;;;-4.60;99.90;;;;;;5031433;28;20571;-76
2021/12/22 03:59:57;;;;;;;48.13;26.53;;;-4.60;99.90;;;;;;5031158;28;20120;-76
2021/12/22 04:02:23;;;;;;;53.70;26.97;;;-4.60;99.90;;;;;;5031613;28;20466;-76
2021/12/22 04:04:50;;;;;;;51.90;26.93;;;-4.60;99.90;;;;;;5031090;28;20141;-76
2021/12/22 04:07:17;;;;;;;53.43;26.73;;;-4.60;99.90;;;;;;5031279;28;20472;-76
2021/12/22 04:09:44;;;;;;;52.43;27.07;;;-4.40;99.90;;;;;;5030983;28;20045;-76
2021/12/22 04:12:10;;;;;;;50.60;26.53;;;-4.40;99.90;;;;;;5014495;28;20088;-76
2021/12/22 04:14:36;;;;;;;41.23;23.07;;;-4.40;99.90;;;;;;5030906;28;20104;-75
2021/12/22 04:17:02;;;;;;;42.33;23.40;;;-4.40;99.90;;;;;;5030957;28;20041;-76
2021/12/22 04:19:27;;;;;;;45.57;23.73;;;-4.40;99.90;;;;;;5030973;28;20049;-76
2021/12/22 04:21:53;;;;;;;46.13;24.03;;;-4.40;99.90;;;;;;5030774;28;20140;-76
2021/12/22 04:24:20;;;;;;;52.33;23.73;;;-4.40;99.90;;;;;;5014459;28;20088;-76
2021/12/22 04:26:46;;;;;;;51.23;23.30;;;-4.50;99.90;;;;;;5030955;28;20048;-76
2021/12/22 04:29:13;;;;;;;43.93;22.33;;;-4.50;99.90;;;;;;5030833;28;20492;-76
2021/12/22 04:31:39;;;;;;;44.67;22.00;;;-4.60;99.90;;;;;;5031123;28;20420;-76
2021/12/22 04:34:08;;;;;;;41.93;22.43;;;-4.60;99.90;;;;;;5031606;28;20053;-76
2021/12/22 04:36:38;;;;;;;41.60;20.40;;;-4.60;99.90;;;;;;5034518;28;20053;-76
2021/12/22 04:39:06;;;;;;;38.93;20.37;;;-4.70;99.90;;;;;;5034248;28;20054;-76
2021/12/22 04:41:32;;;;;;;39.80;22.10;;;-4.70;99.90;;;;;;5034290;28;20045;-76
2021/12/22 04:43:58;;;;;;;40.60;20.77;;;-4.80;99.90;;;;;;5034296;28;20067;-76
2021/12/22 04:46:23;;;;;;;40.63;19.20;;;-4.80;99.90;;;;;;5034235;28;20045;-76
2021/12/22 04:48:49;;;;;;;41.30;20.47;;;-4.90;99.90;;;;;;5033985;28;20045;-76
2021/12/22 04:51:30;;;;;;;37.33;19.67;;;-4.90;99.90;;;;;;5034313;28;20104;-76
2021/12/22 04:54:17;;;;;;;36.60;19.77;;;-5.00;99.90;;;;;;5033868;28;20160;-76
2021/12/22 04:56:42;;;;;;;33.13;18.33;;;-5.00;99.90;;;;;;5050387;28;20060;-75
2021/12/22 04:59:08;;;;;;;41.67;20.47;;;-5.10;99.90;;;;;;5033990;28;20037;-76
2021/12/22 05:01:33;;;;;;;43.47;21.63;;;-5.10;99.90;;;;;;5050842;28;20134;-76
2021/12/22 05:03:59;;;;;;;44.13;20.53;;;-5.00;99.90;;;;;;5034103;28;20049;-75
2021/12/22 05:06:25;;;;;;;36.50;20.37;;;-5.00;99.90;;;;;;5033870;28;20129;-76
2021/12/22 05:08:52;;;;;;;40.63;20.40;;;-5.00;99.90;;;;;;5033689;28;20103;-75
2021/12/22 05:11:18;;;;;;;37.50;20.00;;;-5.00;99.90;;;;;;5033727;28;20048;-76
2021/12/22 05:13:43;;;;;;;44.20;21.27;;;-5.00;99.90;;;;;;5033541;28;20041;-76
2021/12/22 05:16:16;;;;;;;36.13;19.00;;;-4.90;99.90;;;;;;5033673;28;20455;-76
2021/12/22 05:18:56;;;;;;;36.92;19.73;;;-5.00;99.90;;;;;;5033780;28;20502;-76
2021/12/22 05:21:24;;;;;;;44.67;19.23;;;-5.00;99.90;;;;;;5033661;28;20045;-76
2021/12/22 05:23:51;;;;;;;37.50;19.23;;;-5.00;99.90;;;;;;5033769;28;20048;-75
2021/12/22 05:26:17;;;;;;;40.20;19.63;;;-5.00;99.90;;;;;;5017013;28;20049;-76
2021/12/22 05:28:43;;;;;;;35.30;19.17;;;-5.00;99.90;;;;;;5033150;28;20053;-76
2021/12/22 05:31:09;;;;;;;34.23;18.40;;;-5.00;99.90;;;;;;5033391;28;20091;-76
2021/12/22 05:33:35;;;;;;;43.00;20.70;;;-5.10;99.90;;;;;;5033436;28;20081;-76
2021/12/22 05:36:01;;;;;;;38.60;18.30;;;-5.10;99.90;;;;;;5033130;28;20042;-76
2021/12/22 05:38:26;;;;;;;34.37;17.83;;;-5.10;99.90;;;;;;5032869;28;20052;-76
2021/12/22 05:40:53;;;;;;;36.43;17.47;;;-5.10;99.90;;;;;;5033268;28;20077;-75
2021/12/22 05:43:19;;;;;;;33.83;18.17;;;-5.10;99.90;;;;;;5033121;28;20085;-76
2021/12/22 05:45:45;;;;;;;41.30;19.83;;;-5.10;99.90;;;;;;5033015;28;20504;-76
2021/12/22 05:48:11;;;;;;;41.67;20.00;;;-5.20;99.90;;;;;;5032944;28;20071;-76
2021/12/22 05:50:36;;;;;;;39.53;19.03;;;-5.10;99.90;;;;;;5032921;28;20095;-75
2021/12/22 05:53:02;;;;;;;39.97;18.97;;;-5.10;99.90;;;;;;5032821;28;20463;-76
2021/12/22 05:55:28;;;;;;;33.90;19.00;;;-5.10;99.90;;;;;;5032855;28;20041;-76
2021/12/22 05:57:54;;;;;;;35.47;18.73;;;-5.10;99.90;;;;;;5016339;28;20092;-76
2021/12/22 06:00:22;;;;;;;39.17;18.97;;;-5.10;99.90;;;;;;5016237;28;20128;-76
2021/12/22 06:02:48;;;;;;;36.33;18.60;;;-5.10;99.90;;;;;;5032969;28;20132;-76
2021/12/22 06:05:14;;;;;;;42.03;18.70;;;-5.20;99.90;;;;;;5032650;28;20567;-76
2021/12/22 06:07:39;;;;;;;43.43;19.13;;;-5.20;99.90;;;;;;5032587;28;20041;-75
2021/12/22 06:10:06;;;;;;;35.37;19.10;;;-5.20;99.90;;;;;;5016166;28;20068;-76
2021/12/22 06:12:32;;;;;;;40.23;18.20;;;-5.20;99.90;;;;;;5032610;28;20050;-76
2021/12/22 06:14:57;;;;;;;33.47;18.53;;;-5.10;99.90;;;;;;5032648;28;20052;-75
2021/12/22 06:17:23;;;;;;;39.60;18.80;;;-5.20;99.90;;;;;;5032450;28;20095;-75
2021/12/22 06:19:49;;;;;;;38.70;19.17;;;-5.20;99.90;;;;;;5016000;28;20048;-76
2021/12/22 06:22:15;;;;;;;36.73;17.73;;;-5.20;99.90;;;;;;5032599;28;20115;-76
2021/12/22 06:24:40;;;;;;;37.50;18.00;;;-5.20;99.90;;;;;;5032655;28;20038;-75
2021/12/22 06:27:06;;;;;;;30.03;16.67;;;-5.20;99.90;;;;;;5032314;28;20049;-76
2021/12/22 06:29:32;;;;;;;30.97;16.87;;;-5.30;99.90;;;;;;5032306;28;20485;-76
2021/12/22 06:31:57;;;;;;;31.77;17.63;;;-5.40;99.90;;;;;;5032211;28;20077;-75
2021/12/22 06:34:23;;;;;;;36.23;18.37;;;-5.40;99.90;;;;;;5032021;28;20046;-76
2021/12/22 06:36:49;;;;;;;35.40;18.13;;;-5.40;99.90;;;;;;5032084;28;20459;-75
2021/12/22 06:39:18;;;;;;;39.97;18.67;;;-5.40;99.90;;;;;;5031570;28;20512;-76
2021/12/22 06:41:44;;;;;;;40.03;18.47;;;-5.40;99.90;;;;;;5015492;28;20045;-76
2021/12/22 06:44:09;;;;;;;40.80;18.30;;;-5.40;99.90;;;;;;5031987;28;20045;-76
2021/12/22 06:46:35;;;;;;;34.23;18.67;;;-5.40;99.90;;;;;;5015512;28;20603;-75
2021/12/22 06:49:01;;;;;;;35.30;18.97;;;-5.40;99.90;;;;;;5031856;28;20377;-75
2021/12/22 06:51:27;;;;;;;39.57;19.33;;;-5.40;99.90;;;;;;5031952;28;20111;-75
2021/12/22 06:53:52;;;;;;;36.70;18.33;;;-5.30;99.90;;;;;;5031716;28;20472;-75
2021/12/22 06:56:18;;;;;;;38.07;19.37;;;-5.30;99.90;;;;;;5031728;28;20042;-75
2021/12/22 06:58:44;;;;;;;38.77;18.23;;;-5.30;99.90;;;;;;5031302;28;20046;-75
2021/12/22 07:01:16;;;;;;;40.73;19.63;;;-5.30;99.90;;;;;;5032371;28;20045;-76
2021/12/22 07:03:42;;;;;;;34.53;17.70;;;-5.30;99.90;;;;;;5015146;28;20045;-76
2021/12/22 07:06:07;;;;;;;41.87;18.77;;;-5.20;99.90;;;;;;5031930;28;20179;-76
2021/12/22 07:08:33;;;;;;;42.13;19.23;;;-5.20;99.90;;;;;;5031398;28;20057;-76
2021/12/22 07:10:59;;;;;;;33.13;17.47;;;-5.20;99.90;;;;;;5031923;28;20084;-76
2021/12/22 07:13:24;;;;;;;39.73;19.70;;;-5.20;99.90;;;;;;5031253;28;20042;-76
2021/12/22 07:15:51;;;;;;;36.40;18.33;;;-5.20;99.90;;;;;;5031708;28;20048;-75
2021/12/22 07:18:16;;;;;;;39.53;18.47;;;-5.20;99.90;;;;;;5031660;28;20053;-75
2021/12/22 07:20:42;;;;;;;38.83;19.00;;;-5.20;99.90;;;;;;5031519;28;20048;-75
2021/12/22 07:23:08;;;;;;;38.00;18.67;;;-5.20;99.90;;;;;;5031647;28;20049;-75
2021/12/22 07:25:34;;;;;;;32.57;16.67;;;-5.20;99.90;;;;;;5031399;28;20041;-76
2021/12/22 07:28:00;;;;;;;43.70;18.07;;;-5.30;99.90;;;;;;5031655;28;20480;-75
2021/12/22 07:30:26;;;;;;;35.07;17.37;;;-5.30;99.90;;;;;;5031330;28;20045;-75
2021/12/22 07:32:52;;;;;;;40.27;17.47;;;-5.20;99.90;;;;;;5031233;28;20053;-76
2021/12/22 07:35:53;;;;;;;37.93;18.33;;;-5.20;99.90;;;;;;5031228;28;20500;-75
2021/12/22 07:38:25;;;;;;;40.33;19.30;;;-5.20;99.90;;;;;;5022495;28;20099;-76
2021/12/22 07:40:52;;;;;;;36.27;16.90;;;-5.20;99.90;;;;;;5031652;28;20046;-75
2021/12/22 07:43:18;;;;;;;36.70;18.97;;;-5.20;99.90;;;;;;5031607;28;20542;-76
2021/12/22 07:45:45;;;;;;;37.43;18.23;;;-5.10;99.90;;;;;;5031652;28;20496;-76
2021/12/22 07:48:10;;;;;;;38.97;18.60;;;-5.10;99.90;;;;;;5031610;28;20565;-76
2021/12/22 07:50:36;;;;;;;35.53;18.07;;;-5.10;99.90;;;;;;5031753;28;20049;-75
2021/12/22 07:53:02;;;;;;;42.13;19.13;;;-5.10;99.90;;;;;;5034991;28;20376;-75
2021/12/22 07:55:28;;;;;;;36.87;19.70;;;-5.10;99.90;;;;;;5048803;28;20052;-76
2021/12/22 07:57:54;;;;;;;42.80;17.30;;;-5.10;99.90;;;;;;5014582;28;20050;-74
2021/12/22 08:00:20;;;;;;;36.07;18.30;;;-5.10;99.90;;;;;;5014683;28;20037;-76
2021/12/22 08:02:46;;;;;;;32.00;16.53;;;-5.10;99.90;;;;;;5029437;28;20042;-75
2021/12/22 08:05:12;;;;;;;37.43;17.23;;;-5.20;99.90;;;;;;5014176;28;20048;-76
2021/12/22 08:07:38;;;;;;;39.37;16.37;;;-5.10;99.90;;;;;;5031034;28;20151;-76
2021/12/22 08:10:06;;;;;;;35.97;17.37;;;-5.20;99.90;;;;;;5050155;28;20069;-75
2021/12/22 08:12:32;;;;;;;36.93;17.30;;;-5.20;99.90;;;;;;5051196;28;20046;-76
2021/12/22 08:14:58;;;;;;;34.07;15.67;;;-5.10;99.90;;;;;;5034566;28;20048;-76
2021/12/22 08:17:27;;;;;;;42.17;17.93;;;-5.10;99.90;;;;;;5033928;28;20125;-76
2021/12/22 08:19:53;;;;;;;39.30;18.27;;;-5.10;99.90;;;;;;5051802;28;20447;-76
2021/12/22 08:22:20;;;;;;;39.97;18.27;;;-5.00;99.90;;;;;;5050940;28;20458;-75
2021/12/22 08:24:45;;;;;;;37.47;17.80;;;-5.00;99.90;;;;;;5034314;28;20071;-76
2021/12/22 08:27:11;;;;;;;40.97;17.43;;;-5.00;99.90;;;;;;5017481;28;20041;-76
2021/12/22 08:29:42;;;;;;;38.10;17.07;;;-4.90;99.90;;;;;;5050919;28;20128;-74
2021/12/22 08:32:09;;;;;;;39.40;18.77;;;-4.80;99.90;;;;;;5033416;28;20042;-75
2021/12/22 08:34:38;;;;;;;35.73;16.83;;;-4.80;99.90;;;;;;5033894;28;20045;-76
2021/12/22 08:39:49;;;;;;;40.83;17.20;;;-4.70;99.90;;;;;;5014087;28;20108;-75
2021/12/22 08:42:15;;;;;;;36.80;18.43;;;-4.60;99.90;;;;;;5013715;28;20469;-76
2021/12/22 08:44:41;;;;;;;36.77;17.03;;;-4.60;99.90;;;;;;5014566;28;20046;-75
2021/12/22 08:47:07;;;;;;;35.63;17.07;;;-4.50;99.90;;;;;;5014520;28;20136;-75
2021/12/22 08:49:33;;;;;;;37.27;18.03;;;-4.50;99.90;;;;;;5014554;28;20053;-75
2021/12/22 08:52:00;;;;;;;39.80;19.03;;;-4.40;99.90;;;;;;5014412;28;20042;-75
2021/12/22 08:54:26;;;;;;;38.13;18.27;;;-4.40;99.90;;;;;;5014303;28;20046;-76
2021/12/22 08:56:54;;;;;;;41.80;18.27;;;-4.30;99.90;;;;;;5014647;28;20413;-75
2021/12/22 08:59:19;;;;;;;35.53;18.37;;;-4.20;99.90;;;;;;5014076;28;20099;-75
2021/12/22 09:01:45;;;;;;;37.13;18.53;;;-4.20;99.90;;;;;;5014494;28;20045;-76
2021/12/22 09:04:12;;;;;;;37.50;17.07;;;-4.20;99.90;;;;;;5024898;28;20044;-76
2021/12/22 09:06:37;;;;;;;38.40;17.30;;;-4.10;99.90;;;;;;5033223;28;20064;-76
2021/12/22 09:09:05;;;;;;;36.67;18.10;;;-4.10;99.90;;;;;;5033310;28;20147;-77
2021/12/22 09:11:31;;;;;;;40.97;18.30;;;-4.10;99.90;;;;;;5049979;28;20068;-76
2021/12/22 09:13:57;;;;;;;36.63;18.20;;;-4.10;99.90;;;;;;5016867;28;20045;-77
2021/12/22 09:16:22;;;;;;;37.13;18.37;;;-4.00;99.90;;;;;;5033597;28;20049;-77
2021/12/22 09:18:48;;;;;;;33.97;17.90;;;-3.90;99.90;;;;;;5033530;28;20079;-75
2021/12/22 09:21:16;;;;;;;42.80;19.00;;;-3.80;99.90;;;;;;5033305;28;20049;-76
2021/12/22 09:23:42;;;;;;;39.43;18.67;;;-3.70;99.90;;;;;;5016089;28;20045;-75
2021/12/22 09:26:08;;;;;;;43.10;21.53;;;-3.60;99.90;;;;;;5033425;28;20053;-75
2021/12/22 09:28:35;;;;;;;41.53;20.43;;;-3.50;99.90;;;;;;5033435;28;20085;-75
2021/12/22 09:31:01;;;;;;;40.70;20.03;;;-3.30;99.90;;;;;;5036958;28;20124;-76
2021/12/22 09:33:27;;;;;;;38.60;19.40;;;-3.20;99.90;;;;;;5033255;28;20045;-77
2021/12/22 09:35:54;;;;;;;43.23;20.97;;;-3.10;99.90;;;;;;5016624;28;20052;-77
2021/12/22 09:38:20;;;;;;;44.43;20.87;;;-3.00;99.90;;;;;;5049965;28;20132;-77
2021/12/22 09:40:47;;;;;;;44.53;21.40;;;-2.90;99.90;;;;;;5016577;28;20118;-75
2021/12/22 09:43:13;;;;;;;43.70;20.33;;;-2.80;99.90;;;;;;5049551;28;20128;-77
2021/12/22 09:45:45;;;;;;;42.30;19.93;;;-2.80;99.90;;;;;;5033261;28;20049;-75
2021/12/22 09:50:52;;;;;;;44.23;21.67;;;-2.70;99.90;;;;;;5033161;28;20064;-74
2021/12/22 09:53:22;;;;;;;45.23;22.83;;;-2.60;99.90;;;;;;5002511;28;20049;-76
2021/12/22 09:55:49;;;;;;;58.77;29.63;;;-2.60;99.90;;;;;;5033054;28;20052;-75
2021/12/22 09:58:16;;;;;;;45.67;23.87;;;-2.50;99.90;;;;;;5032711;28;20041;-74
2021/12/22 10:00:43;;;;;;;42.37;21.90;;;-2.50;99.90;;;;;;5016230;28;20103;-75
2021/12/22 10:03:11;;;;;;;35.97;18.60;;;-2.40;99.90;;;;;;5032564;28;20049;-76
2021/12/22 10:05:38;;;;;;;39.27;20.67;;;-2.30;99.90;;;;;;5032580;28;20061;-77
2021/12/22 10:08:16;;;;;;;41.47;19.53;;;-2.30;99.90;;;;;;5032540;28;20523;-75
2021/12/22 10:10:46;;;;;;;43.20;19.47;;;-2.30;99.90;;;;;;5032519;28;20127;-76
2021/12/22 10:13:15;;;;;;;41.37;18.17;;;-2.20;99.90;;;;;;5032389;28;20136;-76
2021/12/22 10:15:41;;;;;;;35.40;14.70;;;-2.10;99.90;;;;;;5032505;28;20053;-77
2021/12/22 10:18:22;;;;;;;42.03;19.30;;;-2.10;99.90;;;;;;5031964;28;20045;-75
2021/12/22 10:20:51;;;;;;;37.20;17.60;;;-2.00;99.90;;;;;;5048619;28;20037;-76
2021/12/22 10:23:26;;;;;;;35.00;17.87;;;-1.90;99.90;;;;;;5048589;28;20416;-76
2021/12/22 10:25:53;;;;;;;37.57;17.43;;;-1.90;99.90;;;;;;5030448;28;20059;-75
2021/12/22 10:28:19;;;;;;;36.50;17.17;;;-1.80;99.90;;;;;;5032091;28;20399;-75
2021/12/22 10:30:46;;;;;;;37.60;19.87;;;-1.70;99.90;;;;;;5032334;28;20124;-75
2021/12/22 10:33:15;;;;;;;37.20;18.43;;;-1.70;99.90;;;;;;5015462;28;20425;-78
2021/12/22 10:35:44;;;;;;;33.57;16.03;;;-1.60;99.90;;;;;;5015671;28;20045;-77
2021/12/22 10:38:12;;;;;;;36.03;16.57;;;-1.50;99.90;;;;;;5032208;28;20124;-77
2021/12/22 10:40:44;;;;;;;35.63;16.57;;;-1.50;99.90;;;;;;5015848;28;20053;-75
2021/12/22 10:43:41;;;;;;;31.27;17.10;;;-1.40;99.90;;;;;;5032081;28;20049;-75
2021/12/22 10:46:13;;;;;;;33.63;17.03;;;-1.40;99.90;;;;;;5031742;28;20080;-75
2021/12/22 10:51:30;;;;;;;30.67;15.53;;;-1.40;99.90;;;;;;5032036;28;20060;-77
2021/12/22 10:53:57;;;;;;;28.37;15.07;;;-1.30;99.90;;;;;;5031952;28;20045;-75
2021/12/22 10:56:31;;;;;;;31.27;17.30;;;-1.30;99.90;;;;;;5031849;28;20123;-75
2021/12/22 10:59:00;;;;;;;28.97;15.47;;;-1.30;99.90;;;;;;5031847;28;20041;-77
2021/12/22 11:01:26;;;;;;;32.60;15.07;;;-1.30;99.90;;;;;;5031879;28;20052;-75
2021/12/22 11:04:01;;;;;;;30.27;16.30;;;-1.30;99.90;;;;;;4999232;28;20487;-75
2021/12/22 11:06:30;;;;;;;27.17;14.40;;;-1.20;99.90;;;;;;5017135;28;20410;-77
2021/12/22 11:09:13;;;;;;;29.50;15.27;;;-1.30;99.90;;;;;;5031630;28;20045;-77
2021/12/22 11:11:49;;;;;;;26.92;14.23;;;-1.30;99.90;;;;;;5032085;28;20443;-77
2021/12/22 11:14:16;;;;;;;36.83;16.53;;;-1.30;99.90;;;;;;5031753;28;20052;-75
2021/12/22 11:17:01;;;;;;;27.27;16.00;;;-1.30;99.90;;;;;;5031601;28;20049;-75
2021/12/22 11:19:30;;;;;;;23.03;12.53;;;-1.30;99.90;;;;;;5015235;28;20128;-76
2021/12/22 11:22:01;;;;;;;29.50;15.13;;;-1.30;99.90;;;;;;5031548;28;20124;-77
2021/12/22 11:24:28;;;;;;;24.50;12.93;;;-1.30;99.90;;;;;;5014928;28;20088;-76
2021/12/22 11:26:55;;;;;;;27.30;14.17;;;-1.20;99.90;;;;;;5031572;28;20046;-75
2021/12/22 11:29:21;;;;;;;28.90;15.70;;;-1.20;99.90;;;;;;5031740;28;20499;-77
2021/12/22 11:31:48;;;;;;;29.77;14.10;;;-1.20;99.90;;;;;;5031733;28;20049;-77
2021/12/22 11:34:16;;;;;;;25.37;14.10;;;-1.10;99.90;;;;;;5014942;28;20052;-75
2021/12/22 11:36:44;;;;;;;29.03;13.93;;;-1.00;99.90;;;;;;5014989;28;20037;-77
2021/12/22 11:39:10;;;;;;;24.33;14.60;;;-0.90;99.90;;;;;;5014735;28;20061;-77
2021/12/22 11:41:43;;;;;;;24.53;14.00;;;-1.00;99.90;;;;;;5031458;28;20094;-77
2021/12/22 11:44:10;;;;;;;25.23;13.70;;;-1.00;99.90;;;;;;5002166;28;20124;-75
2021/12/22 11:46:37;;;;;;;19.67;11.80;;;-1.00;99.90;;;;;;5035455;28;20107;-76
2021/12/22 11:49:04;;;;;;;23.23;13.77;;;-1.10;99.90;;;;;;5002820;28;20103;-75
2021/12/22 11:51:34;;;;;;;30.13;14.63;;;-1.10;99.90;;;;;;5018826;28;20041;-76
2021/12/22 11:54:05;;;;;;;26.03;13.67;;;-1.10;99.90;;;;;;5019020;28;20496;-77
2021/12/22 11:56:40;;;;;;;20.83;13.53;;;-1.00;99.90;;;;;;5035318;28;20045;-76
2021/12/22 11:59:23;;;;;;;26.40;12.97;;;-1.10;99.90;;;;;;5018628;28;20041;-77
2021/12/22 12:02:21;;;;;;;27.02;13.50;;;-1.10;99.90;;;;;;5035309;28;20076;-77
2021/12/22 12:04:51;;;;;;;26.97;14.23;;;-1.10;99.90;;;;;;5007271;28;20049;-77
2021/12/22 12:07:42;;;;;;;32.10;14.40;;;-1.10;99.90;;;;;;5018867;28;20053;-77
2021/12/22 12:10:41;;;;;;;25.00;13.83;;;-1.00;99.90;;;;;;5034945;28;20052;-75
2021/12/22 12:14:01;;;;;;;25.57;14.30;;;-1.00;99.90;;;;;;5035151;28;20088;-77
2021/12/22 12:22:27;;;;;;;26.97;15.47;;;-1.00;99.90;;;;;;5034776;28;20188;-77
2021/12/22 12:25:09;;;;;;;29.80;13.83;;;-1.00;99.90;;;;;;5034841;28;20128;-77
2021/12/22 12:27:51;;;;;;;26.80;14.17;;;-0.90;99.90;;;;;;5034629;28;20053;-77
2021/12/22 12:30:46;;;;;;;21.90;13.87;;;-0.80;99.90;;;;;;5034764;28;20049;-76
2021/12/22 12:33:20;;;;;;;25.77;13.83;;;-0.60;99.90;;;;;;5018132;28;20041;-76
2021/12/22 12:36:13;;;;;;;26.90;14.33;;;-0.40;99.90;;;;;;5034472;28;20042;-77
2021/12/22 12:38:52;;;;;;;26.53;13.40;;;-0.20;99.90;;;;;;5015280;28;20054;-77
2021/12/22 12:41:29;;;;;;;25.70;13.63;;;0.10;99.90;;;;;;5034782;28;20168;-76
2021/12/22 12:43:57;;;;;;;20.33;11.60;;;0.50;99.90;;;;;;5034376;28;20052;-76
2021/12/22 12:46:40;;;;;;;18.50;11.83;;;0.70;99.90;;;;;;5034339;28;20053;-76
2021/12/22 12:49:08;;;;;;;23.17;12.07;;;0.90;99.90;;;;;;5034469;28;20049;-75
2021/12/22 12:51:35;;;;;;;20.87;10.83;;;1.20;99.90;;;;;;5017969;28;20090;-76
2021/12/22 12:54:09;;;;;;;19.37;11.03;;;1.20;99.90;;;;;;5001343;28;20045;-76
2021/12/22 12:56:40;;;;;;;18.15;12.15;;;1.10;99.90;;;;;;5033793;28;20474;-76
2021/12/22 12:59:07;;;;;;;18.23;10.97;;;1.10;99.90;;;;;;5034079;28;20120;-77
2021/12/22 13:01:49;;;;;;;19.10;10.80;;;1.20;99.90;;;;;;5034423;28;20400;-77